Time;durP1;ratioP1;P1;durP2;ratioP2;P2;SDS_P1;SDS_P2;PMS_P1;PMS_P2;Temp;Humidity;BMP_temperature;BMP_pressure;BME280_temperature;BME280_humidity;BME280_pressure;Samples;Min_cycle;Max_cycle;Signal;HPM_P1;HPM_P2
2023/07/14 00:00:47;;;;;;;9.27;7.10;;;16.10;99.90;;;;;;4860112;29;20053;-68
2023/07/14 00:03:18;;;;;;;9.35;7.18;;;16.20;99.90;;;;;;4859813;29;20053;-67
2023/07/14 00:05:44;;;;;;;13.10;8.17;;;16.20;99.90;;;;;;4877072;29;20067;-67
2023/07/14 00:08:18;;;;;;;12.98;7.95;;;16.30;99.90;;;;;;4876738;29;20049;-67
2023/07/14 00:10:44;;;;;;;11.27;7.78;;;16.20;99.90;;;;;;4860378;29;20139;-67
2023/07/14 00:13:12;;;;;;;13.93;7.63;;;16.30;99.90;;;;;;4877024;29;20120;-68
2023/07/14 00:15:39;;;;;;;8.88;6.80;;;16.20;99.90;;;;;;4876956;29;20112;-67
2023/07/14 00:18:22;;;;;;;13.05;7.53;;;16.20;99.90;;;;;;4877100;29;20072;-67
2023/07/14 00:20:48;;;;;;;8.95;6.88;;;16.20;99.90;;;;;;4877024;29;20136;-67
2023/07/14 00:23:15;;;;;;;9.20;7.07;;;16.10;99.90;;;;;;4876645;29;20132;-67
2023/07/14 00:25:41;;;;;;;8.52;7.60;;;16.20;99.90;;;;;;4860007;29;20049;-67
2023/07/14 00:28:18;;;;;;;10.02;7.57;;;16.10;99.90;;;;;;4891509;29;20489;-67
2023/07/14 00:30:45;;;;;;;10.48;7.80;;;16.10;99.90;;;;;;4894446;29;20135;-67
2023/07/14 00:33:14;;;;;;;10.52;7.45;;;16.10;99.90;;;;;;4877503;29;20092;-67
2023/07/14 00:35:41;;;;;;;10.80;7.30;;;16.10;99.90;;;;;;4894955;29;20087;-67
2023/07/14 00:38:07;;;;;;;9.80;7.43;;;16.10;99.90;;;;;;4895315;29;20057;-67
2023/07/14 00:40:45;;;;;;;10.73;7.95;;;16.10;99.90;;;;;;4898578;29;20045;-67
2023/07/14 00:43:15;;;;;;;11.50;7.72;;;16.10;99.90;;;;;;4912924;29;20056;-67
2023/07/14 00:45:41;;;;;;;12.82;7.90;;;16.10;99.90;;;;;;4917370;29;20123;-67
2023/07/14 00:48:12;;;;;;;12.60;8.30;;;16.00;99.90;;;;;;4917270;29;20433;-67
2023/07/14 00:50:39;;;;;;;10.25;8.20;;;15.90;99.90;;;;;;4917516;29;20435;-67
2023/07/14 00:53:23;;;;;;;11.57;8.55;;;15.90;99.90;;;;;;4900395;29;20048;-67
2023/07/14 00:56:19;;;;;;;11.45;8.55;;;15.90;99.90;;;;;;4917166;29;20099;-67
2023/07/14 00:58:50;;;;;;;13.55;8.35;;;15.90;99.90;;;;;;4900428;29;20056;-67
2023/07/14 01:01:24;;;;;;;10.93;8.32;;;15.90;99.90;;;;;;4917223;29;20055;-67
2023/07/14 01:03:52;;;;;;;11.23;8.35;;;15.90;99.90;;;;;;4899913;29;20074;-68
2023/07/14 01:06:23;;;;;;;10.23;8.10;;;15.80;99.90;;;;;;4916667;29;20046;-68
2023/07/14 01:09:04;;;;;;;13.77;8.50;;;15.80;99.90;;;;;;4917345;29;20048;-67
2023/07/14 01:11:42;;;;;;;12.20;7.90;;;15.70;99.90;;;;;;4917191;29;20472;-67
2023/07/14 01:14:17;;;;;;;10.57;8.35;;;15.60;99.90;;;;;;4861400;29;20136;-68
2023/07/14 01:16:43;;;;;;;10.57;8.15;;;15.60;99.90;;;;;;4879422;29;20162;-67
2023/07/14 01:19:31;;;;;;;12.18;8.90;;;15.70;99.90;;;;;;4881104;29;20067;-68
2023/07/14 01:22:15;;;;;;;12.95;8.52;;;15.70;99.90;;;;;;4866074;29;20059;-67
2023/07/14 01:25:10;;;;;;;10.25;8.43;;;15.70;99.90;;;;;;4897640;29;20067;-67
2023/07/14 01:27:35;;;;;;;12.82;9.07;;;15.70;99.90;;;;;;4878949;29;20053;-67
2023/07/14 01:30:02;;;;;;;10.73;8.63;;;15.60;99.90;;;;;;4897640;29;20059;-68
2023/07/14 01:32:35;;;;;;;16.73;9.10;;;15.60;99.90;;;;;;4897750;29;20048;-68
2023/07/14 01:35:02;;;;;;;18.20;9.75;;;15.70;99.90;;;;;;4897700;29;20071;-68
2023/07/14 01:37:28;;;;;;;14.15;8.90;;;15.70;99.90;;;;;;4880804;29;20052;-67
2023/07/14 01:39:54;;;;;;;12.50;8.48;;;15.70;99.90;;;;;;4897555;29;20075;-68
2023/07/14 01:42:21;;;;;;;12.45;8.70;;;15.70;99.90;;;;;;4897450;29;20140;-68
2023/07/14 01:44:48;;;;;;;13.40;9.10;;;15.70;99.90;;;;;;4897715;29;20057;-67
2023/07/14 01:47:14;;;;;;;12.60;8.07;;;15.70;99.90;;;;;;4897304;29;20972;-67
2023/07/14 01:49:45;;;;;;;10.57;8.45;;;15.70;99.90;;;;;;4879496;29;20088;-68
2023/07/14 01:52:18;;;;;;;13.05;8.45;;;15.70;99.90;;;;;;4897370;29;20170;-68
2023/07/14 01:54:50;;;;;;;15.88;8.60;;;15.70;99.90;;;;;;4897527;29;20116;-68
2023/07/14 01:57:20;;;;;;;12.75;8.85;;;15.70;99.90;;;;;;4880375;29;20084;-68
2023/07/14 01:59:51;;;;;;;11.75;8.07;;;15.70;99.90;;;;;;4895146;29;20056;-68
2023/07/14 02:02:25;;;;;;;12.68;8.63;;;15.60;99.90;;;;;;4897186;29;20639;-68
2023/07/14 02:04:51;;;;;;;12.48;7.97;;;15.50;99.90;;;;;;4879853;29;20207;-67
2023/07/14 02:07:17;;;;;;;12.10;8.63;;;15.50;99.90;;;;;;4879722;29;20056;-68
2023/07/14 02:09:44;;;;;;;9.02;7.10;;;15.50;99.90;;;;;;4896664;29;20052;-67
2023/07/14 02:12:20;;;;;;;9.98;7.32;;;15.50;99.90;;;;;;4895042;29;20044;-67
2023/07/14 02:14:57;;;;;;;11.55;7.28;;;15.50;99.90;;;;;;4895485;29;20052;-67
2023/07/14 02:17:30;;;;;;;10.50;7.18;;;15.50;99.90;;;;;;4896811;29;20508;-67
2023/07/14 02:19:57;;;;;;;10.07;7.55;;;15.50;99.90;;;;;;4871735;29;20057;-68
2023/07/14 02:22:24;;;;;;;8.95;7.18;;;15.50;99.90;;;;;;4878065;29;20060;-68
2023/07/14 02:24:51;;;;;;;11.20;7.55;;;15.50;99.90;;;;;;4860860;29;20057;-68
2023/07/14 02:27:17;;;;;;;10.60;7.63;;;15.50;99.90;;;;;;4863470;29;20060;-68
2023/07/14 02:29:43;;;;;;;15.27;7.43;;;15.40;99.90;;;;;;4896692;29;20516;-67
2023/07/14 02:32:27;;;;;;;8.93;7.25;;;15.40;99.90;;;;;;4879511;29;20144;-67
2023/07/14 02:35:03;;;;;;;11.35;7.32;;;15.40;99.90;;;;;;4896336;29;20053;-68
2023/07/14 02:40:50;;;;;;;11.05;8.02;;;15.30;99.90;;;;;;4871508;29;20205;-67
2023/07/14 02:43:19;;;;;;;12.98;7.72;;;15.30;99.90;;;;;;4894988;29;20056;-68
2023/07/14 02:46:17;;;;;;;11.90;7.32;;;15.30;99.90;;;;;;4896000;29;20088;-67
2023/07/14 02:48:48;;;;;;;12.55;8.00;;;15.30;99.90;;;;;;4896292;29;20048;-68
2023/07/14 02:51:14;;;;;;;13.93;8.10;;;15.20;99.90;;;;;;4879821;29;20060;-67
2023/07/14 02:53:39;;;;;;;11.65;7.25;;;15.30;99.90;;;;;;4896356;29;20488;-68
2023/07/14 02:56:06;;;;;;;10.02;7.40;;;15.30;99.90;;;;;;4895912;29;20087;-68
2023/07/14 02:58:33;;;;;;;10.07;6.95;;;15.30;99.90;;;;;;4895994;29;20058;-68
2023/07/14 03:00:59;;;;;;;14.07;8.65;;;15.40;99.90;;;;;;4896088;29;20052;-67
2023/07/14 03:03:26;;;;;;;13.07;6.88;;;15.40;99.90;;;;;;4895601;29;20528;-68
2023/07/14 03:05:52;;;;;;;11.85;7.22;;;15.40;99.90;;;;;;4879127;29;20059;-68
2023/07/14 03:08:18;;;;;;;10.55;7.28;;;15.30;99.90;;;;;;4895806;29;20052;-67
2023/07/14 03:10:46;;;;;;;12.75;7.55;;;15.30;99.90;;;;;;4896264;29;20067;-68
2023/07/14 03:13:14;;;;;;;13.20;7.82;;;15.30;99.90;;;;;;4896402;29;20060;-68
2023/07/14 03:15:41;;;;;;;9.05;7.35;;;15.30;99.90;;;;;;4879252;29;20072;-68
2023/07/14 03:18:06;;;;;;;12.02;7.32;;;15.30;99.90;;;;;;4895884;29;20091;-68
2023/07/14 03:20:32;;;;;;;12.93;7.85;;;15.20;99.90;;;;;;4896087;29;20496;-68
2023/07/14 03:22:58;;;;;;;10.65;7.32;;;15.20;99.90;;;;;;4878953;29;20135;-68
2023/07/14 03:25:23;;;;;;;10.13;7.38;;;15.20;99.90;;;;;;4878846;29;20056;-68
2023/07/14 03:27:49;;;;;;;13.32;7.72;;;15.20;99.90;;;;;;4895751;29;20093;-68
2023/07/14 03:30:15;;;;;;;12.88;7.60;;;15.20;99.90;;;;;;4894098;29;20076;-68
2023/07/14 03:32:42;;;;;;;12.63;7.10;;;15.10;99.90;;;;;;4891852;29;20048;-68
2023/07/14 03:35:08;;;;;;;8.73;6.90;;;15.20;99.90;;;;;;4868968;29;20069;-68
2023/07/14 03:37:34;;;;;;;9.45;7.18;;;15.20;99.90;;;;;;4892853;29;20052;-68
2023/07/14 03:40:00;;;;;;;10.70;8.02;;;15.10;99.90;;;;;;4884453;29;20547;-68
2023/07/14 03:42:25;;;;;;;10.02;7.90;;;15.20;99.90;;;;;;4891083;29;20147;-68
2023/07/14 03:44:51;;;;;;;11.95;7.25;;;15.20;99.90;;;;;;4883291;29;20048;-68
2023/07/14 03:47:17;;;;;;;10.23;7.97;;;15.20;99.90;;;;;;4895512;29;20056;-67
2023/07/14 03:49:42;;;;;;;11.13;9.05;;;15.20;99.90;;;;;;4895798;29;20412;-68
2023/07/14 03:52:08;;;;;;;11.88;8.68;;;15.20;99.90;;;;;;4878548;29;20971;-68
2023/07/14 03:54:34;;;;;;;14.20;9.60;;;15.20;99.90;;;;;;4895451;29;20052;-68
2023/07/14 03:57:00;;;;;;;14.18;8.95;;;15.30;99.90;;;;;;4895475;29;20500;-68
2023/07/14 03:59:27;;;;;;;15.30;9.15;;;15.40;99.90;;;;;;4895548;29;20048;-68
2023/07/14 04:01:53;;;;;;;13.00;8.80;;;15.40;99.90;;;;;;4895316;29;20123;-68
2023/07/14 04:04:20;;;;;;;12.73;8.77;;;15.40;99.90;;;;;;4878444;29;20060;-68
2023/07/14 04:06:46;;;;;;;12.63;8.27;;;15.20;99.90;;;;;;4895552;29;20055;-67
2023/07/14 04:09:12;;;;;;;11.25;7.72;;;15.20;99.90;;;;;;4895390;29;20044;-68
2023/07/14 04:11:37;;;;;;;10.52;7.97;;;15.20;99.90;;;;;;4878697;29;20496;-68
2023/07/14 04:14:05;;;;;;;10.13;7.88;;;15.20;99.90;;;;;;4898269;29;20055;-68
2023/07/14 04:16:30;;;;;;;11.20;8.35;;;15.30;99.90;;;;;;4897303;29;20063;-68
2023/07/14 04:18:56;;;;;;;12.52;8.50;;;15.20;99.90;;;;;;4899150;29;20404;-68
2023/07/14 04:21:27;;;;;;;14.07;8.00;;;15.20;99.90;;;;;;4899034;29;20047;-68
2023/07/14 04:23:54;;;;;;;12.40;8.20;;;15.20;99.90;;;;;;4882085;29;20053;-68
2023/07/14 04:26:21;;;;;;;11.52;7.97;;;15.10;99.90;;;;;;4898340;29;20416;-67
2023/07/14 04:28:47;;;;;;;13.38;8.07;;;15.20;99.90;;;;;;4898860;29;20067;-68
2023/07/14 04:31:13;;;;;;;10.82;8.27;;;15.30;99.90;;;;;;4874613;29;20469;-68
2023/07/14 04:33:41;;;;;;;13.43;8.20;;;15.30;99.90;;;;;;4897597;29;20591;-70
2023/07/14 04:36:08;;;;;;;15.20;8.55;;;15.40;99.90;;;;;;4898971;29;20408;-68
2023/07/14 04:38:33;;;;;;;12.40;9.02;;;15.50;99.90;;;;;;4899068;29;20061;-68
2023/07/14 04:40:59;;;;;;;13.05;9.95;;;15.50;99.90;;;;;;4899089;29;20055;-67
2023/07/14 04:43:25;;;;;;;19.55;10.77;;;15.60;99.90;;;;;;4886089;29;20053;-67
2023/07/14 04:45:51;;;;;;;13.20;9.65;;;15.60;99.90;;;;;;4880153;29;20460;-67
2023/07/14 04:48:19;;;;;;;18.02;10.45;;;15.70;99.90;;;;;;4880309;29;20089;-68
2023/07/14 04:50:46;;;;;;;15.45;11.52;;;15.70;99.90;;;;;;4880077;29;20074;-68
2023/07/14 04:53:13;;;;;;;14.85;10.82;;;15.80;99.90;;;;;;4880310;29;20045;-68
2023/07/14 04:55:41;;;;;;;17.85;10.90;;;15.90;99.90;;;;;;4880330;29;20064;-67
2023/07/14 04:58:08;;;;;;;14.98;11.25;;;16.00;99.90;;;;;;4879653;29;20056;-67
2023/07/14 05:00:36;;;;;;;17.42;11.70;;;16.10;99.90;;;;;;4879426;29;20128;-67
2023/07/14 05:03:02;;;;;;;20.67;13.13;;;16.10;99.90;;;;;;4898123;29;20508;-67
2023/07/14 05:05:28;;;;;;;19.60;12.50;;;16.10;99.90;;;;;;4881008;29;20095;-67
2023/07/14 05:07:55;;;;;;;20.77;12.07;;;16.20;99.90;;;;;;4898560;29;20065;-67
2023/07/14 05:10:23;;;;;;;19.65;11.95;;;16.10;99.90;;;;;;4881563;29;20044;-67
2023/07/14 05:12:53;;;;;;;16.90;12.40;;;16.10;99.90;;;;;;4880872;29;20053;-67
2023/07/14 05:15:19;;;;;;;18.85;12.35;;;16.10;99.90;;;;;;4898218;29;20056;-66
2023/07/14 05:17:45;;;;;;;17.30;12.70;;;16.10;99.90;;;;;;4897752;29;20060;-66
2023/07/14 05:20:14;;;;;;;20.33;12.90;;;16.10;99.90;;;;;;4898311;29;20055;-66
2023/07/14 05:22:51;;;;;;;17.85;12.75;;;16.10;99.90;;;;;;4881326;29;20052;-68
2023/07/14 05:25:17;;;;;;;16.58;13.05;;;16.20;99.90;;;;;;4894869;29;20132;-66
2023/07/14 05:27:45;;;;;;;18.25;12.57;;;16.20;99.90;;;;;;4897199;29;20048;-66
2023/07/14 05:30:14;;;;;;;22.48;13.43;;;16.10;99.90;;;;;;4880362;29;20100;-66
2023/07/14 05:32:42;;;;;;;22.20;13.05;;;16.20;99.90;;;;;;4897457;29;20044;-66
2023/07/14 05:35:09;;;;;;;19.58;13.48;;;16.20;99.90;;;;;;4897678;29;20084;-66
2023/07/14 05:37:35;;;;;;;21.40;13.02;;;16.20;99.90;;;;;;4880833;29;20483;-66
2023/07/14 05:40:04;;;;;;;20.98;13.40;;;16.20;99.90;;;;;;4880663;29;20076;-66
2023/07/14 05:42:30;;;;;;;15.77;12.55;;;16.20;99.90;;;;;;4880525;29;20061;-66
2023/07/14 05:44:55;;;;;;;21.50;13.18;;;16.20;99.90;;;;;;4898155;29;20056;-66
2023/07/14 05:47:24;;;;;;;18.98;13.30;;;16.30;99.90;;;;;;4895812;29;20055;-66
2023/07/14 05:49:51;;;;;;;23.25;15.20;;;16.30;99.90;;;;;;4897224;29;20170;-68
2023/07/14 05:52:17;;;;;;;17.73;12.85;;;16.30;99.90;;;;;;4896891;29;20048;-66
2023/07/14 05:54:43;;;;;;;18.85;13.55;;;16.30;99.90;;;;;;4880658;29;20045;-67
2023/07/14 05:57:09;;;;;;;21.05;14.18;;;16.40;99.90;;;;;;4897103;29;20052;-66
2023/07/14 05:59:35;;;;;;;21.10;13.45;;;16.40;99.90;;;;;;4880281;29;20067;-66
2023/07/14 06:02:00;;;;;;;21.30;13.32;;;16.40;99.90;;;;;;4897147;29;20493;-66
2023/07/14 06:04:26;;;;;;;18.05;13.45;;;16.50;99.90;;;;;;4897027;29;20060;-67
2023/07/14 06:06:52;;;;;;;19.50;13.13;;;16.50;99.90;;;;;;4897432;29;20048;-66
2023/07/14 06:09:18;;;;;;;20.77;12.85;;;16.50;99.90;;;;;;4896986;29;20079;-67
2023/07/14 06:11:44;;;;;;;21.40;13.95;;;16.70;99.90;;;;;;4897185;29;20048;-67
2023/07/14 06:14:11;;;;;;;23.70;14.32;;;16.80;99.90;;;;;;4896814;29;20107;-67
2023/07/14 06:16:37;;;;;;;23.13;13.95;;;16.80;99.90;;;;;;4891876;29;20057;-67
2023/07/14 06:19:03;;;;;;;19.17;12.48;;;16.80;99.90;;;;;;4884976;29;20386;-67
2023/07/14 06:21:29;;;;;;;13.23;7.90;;;17.00;99.90;;;;;;4879496;29;20126;-67
2023/07/14 06:23:55;;;;;;;11.32;8.70;;;17.40;99.90;;;;;;4890112;29;20055;-67
2023/07/14 06:26:20;;;;;;;19.90;9.73;;;17.70;99.90;;;;;;4873283;29;20127;-67
2023/07/14 06:28:46;;;;;;;14.38;10.52;;;17.80;99.90;;;;;;4871941;29;20144;-67
2023/07/14 06:31:13;;;;;;;15.20;9.23;;;17.80;99.90;;;;;;4888353;29;20120;-67
2023/07/14 06:33:39;;;;;;;17.00;10.73;;;18.00;99.90;;;;;;4862137;29;20067;-68
2023/07/14 06:36:05;;;;;;;17.88;10.05;;;18.10;99.90;;;;;;4878723;29;20123;-67
2023/07/14 06:38:31;;;;;;;16.10;11.10;;;18.30;99.90;;;;;;4888181;29;20398;-67
2023/07/14 06:41:01;;;;;;;14.18;10.27;;;18.40;99.90;;;;;;4886325;29;20040;-67
2023/07/14 06:43:29;;;;;;;14.25;9.60;;;18.50;99.90;;;;;;4850158;29;20057;-68
2023/07/14 06:45:54;;;;;;;20.02;8.65;;;18.60;99.90;;;;;;4878060;29;20116;-67
2023/07/14 06:48:21;;;;;;;13.77;8.13;;;18.70;99.90;;;;;;4871946;29;20765;-67
2023/07/14 06:50:47;;;;;;;11.38;8.25;;;18.80;99.90;;;;;;4894479;29;20473;-68
2023/07/14 06:53:13;;;;;;;14.25;8.18;;;18.90;99.90;;;;;;4877809;29;20131;-67
2023/07/14 06:55:39;;;;;;;13.00;7.63;;;19.00;99.90;;;;;;4877941;29;20108;-67
2023/07/14 06:58:06;;;;;;;12.10;6.82;;;19.10;99.90;;;;;;4877900;29;20048;-67
2023/07/14 07:00:33;;;;;;;11.07;7.28;;;19.10;99.90;;;;;;4889357;29;20068;-68
2023/07/14 07:03:00;;;;;;;11.10;7.22;;;19.20;99.90;;;;;;4893011;29;20048;-73
2023/07/14 07:05:26;;;;;;;10.20;6.45;;;19.20;99.90;;;;;;4896320;29;20068;-73
2023/07/14 07:07:53;;;;;;;9.50;6.88;;;19.30;99.90;;;;;;4896370;29;20059;-68
2023/07/14 07:10:19;;;;;;;16.27;7.28;;;19.30;99.90;;;;;;4878743;29;20136;-69
2023/07/14 07:12:45;;;;;;;13.45;7.70;;;19.40;99.90;;;;;;4863501;29;20056;-68
2023/07/14 07:15:11;;;;;;;12.15;7.28;;;19.30;99.90;;;;;;4877457;29;20056;-68
2023/07/14 07:17:38;;;;;;;11.00;7.35;;;19.40;99.90;;;;;;4877267;29;20413;-68
2023/07/14 07:20:09;;;;;;;15.18;7.45;;;19.50;99.90;;;;;;4895152;29;20060;-68
2023/07/14 07:22:36;;;;;;;9.63;7.80;;;19.60;99.90;;;;;;4879444;29;20143;-68
2023/07/14 07:25:02;;;;;;;14.07;7.53;;;19.50;99.90;;;;;;4895098;29;20053;-68
2023/07/14 07:27:28;;;;;;;10.48;6.80;;;19.70;99.90;;;;;;4879316;29;20048;-68
2023/07/14 07:29:54;;;;;;;10.10;7.22;;;19.80;99.90;;;;;;4896024;29;20457;-68
2023/07/14 07:32:20;;;;;;;16.90;7.88;;;19.70;99.90;;;;;;4857795;29;20127;-68
2023/07/14 07:34:46;;;;;;;12.52;7.47;;;19.70;99.90;;;;;;4858933;29;20173;-68
2023/07/14 07:37:12;;;;;;;11.50;7.05;;;19.60;99.90;;;;;;4858784;29;20061;-68
2023/07/14 07:39:38;;;;;;;10.85;7.40;;;19.50;99.90;;;;;;4857146;29;20117;-68
2023/07/14 07:42:05;;;;;;;15.88;7.47;;;19.50;99.90;;;;;;4858916;29;20064;-68
2023/07/14 07:44:34;;;;;;;14.48;7.07;;;19.70;99.90;;;;;;4857479;29;20057;-68
2023/07/14 07:47:00;;;;;;;9.52;6.85;;;19.70;99.90;;;;;;4859011;29;20053;-68
2023/07/14 07:49:26;;;;;;;8.73;6.65;;;20.00;99.90;;;;;;4861884;29;20061;-68
2023/07/14 07:51:52;;;;;;;10.55;7.20;;;20.00;99.90;;;;;;4862325;29;20125;-69
2023/07/14 07:54:18;;;;;;;10.57;7.10;;;20.10;99.90;;;;;;4860836;29;20054;-68
2023/07/14 07:56:44;;;;;;;12.10;6.63;;;20.10;99.90;;;;;;4860981;29;20113;-69
2023/07/14 07:59:15;;;;;;;10.65;6.72;;;20.10;99.90;;;;;;4862236;29;20520;-69
2023/07/14 08:01:42;;;;;;;15.05;6.90;;;20.10;99.90;;;;;;4862396;29;20523;-68
2023/07/14 08:04:09;;;;;;;12.77;6.68;;;20.20;99.90;;;;;;4860912;29;20057;-69
2023/07/14 08:06:36;;;;;;;8.75;6.20;;;20.30;99.90;;;;;;4862048;29;20403;-68
2023/07/14 08:09:04;;;;;;;10.88;6.55;;;20.50;99.90;;;;;;4862174;29;20049;-68
2023/07/14 08:11:30;;;;;;;8.18;5.72;;;20.50;99.90;;;;;;4862090;29;20065;-68
2023/07/14 08:13:58;;;;;;;7.60;5.13;;;20.50;99.90;;;;;;4860920;29;20068;-68
2023/07/14 08:16:25;;;;;;;12.60;5.18;;;20.50;99.90;;;;;;4860596;29;20060;-68
2023/07/14 08:18:51;;;;;;;6.90;4.40;;;20.70;99.90;;;;;;4862161;29;20453;-72
2023/07/14 08:21:17;;;;;;;8.43;3.78;;;20.60;99.90;;;;;;4861763;29;20129;-70
2023/07/14 08:23:43;;;;;;;6.93;3.85;;;20.60;99.90;;;;;;4862186;29;20061;-70
2023/07/14 08:26:09;;;;;;;7.30;4.15;;;20.60;99.90;;;;;;4861990;29;20057;-69
2023/07/14 08:28:35;;;;;;;8.27;4.63;;;20.70;99.90;;;;;;4861946;29;20049;-69
2023/07/14 08:31:06;;;;;;;6.78;3.83;;;20.60;99.90;;;;;;4870719;29;20056;-69
2023/07/14 08:33:33;;;;;;;8.20;3.90;;;20.70;99.90;;;;;;4899231;29;20067;-69
2023/07/14 08:36:00;;;;;;;7.90;3.30;;;20.90;99.90;;;;;;4899290;29;20161;-69
2023/07/14 08:38:30;;;;;;;5.88;3.30;;;21.00;99.90;;;;;;4882299;29;20068;-69
2023/07/14 08:41:14;;;;;;;8.40;3.30;;;21.10;99.90;;;;;;4882121;29;20522;-69
2023/07/14 08:44:17;;;;;;;7.53;3.63;;;21.10;99.90;;;;;;4899069;29;20057;-69
2023/07/14 08:47:02;;;;;;;6.55;2.63;;;21.20;99.90;;;;;;4882108;29;20108;-69
2023/07/14 08:49:36;;;;;;;6.20;2.92;;;21.30;99.90;;;;;;4897272;29;20095;-69
2023/07/14 08:52:15;;;;;;;7.00;2.88;;;21.30;99.90;;;;;;4898691;29;20128;-70
2023/07/14 08:54:57;;;;;;;6.35;2.33;;;21.30;99.90;;;;;;4898512;29;20055;-69
2023/07/14 08:57:24;;;;;;;4.80;2.67;;;21.10;99.90;;;;;;4898796;29;20116;-69
2023/07/14 08:59:54;;;;;;;7.90;2.50;;;21.00;99.90;;;;;;4881354;29;20053;-69
2023/07/14 09:02:31;;;;;;;7.15;2.58;;;21.00;99.90;;;;;;4898463;29;20052;-69
2023/07/14 09:05:05;;;;;;;8.30;2.70;;;21.10;99.90;;;;;;4897810;29;20075;-69
2023/07/14 09:07:30;;;;;;;6.50;2.90;;;21.10;99.90;;;;;;4898434;29;20124;-69
2023/07/14 09:09:56;;;;;;;7.32;3.05;;;21.20;99.90;;;;;;4881709;29;20060;-69
2023/07/14 09:12:41;;;;;;;4.68;2.17;;;21.10;99.90;;;;;;4898517;29;20083;-69
2023/07/14 09:15:16;;;;;;;6.97;3.10;;;21.20;99.90;;;;;;4898633;29;20156;-69
2023/07/14 09:18:15;;;;;;;6.30;3.10;;;21.10;99.90;;;;;;4898655;29;20108;-69
2023/07/14 09:21:00;;;;;;;7.60;2.50;;;21.10;99.90;;;;;;4898098;29;20048;-69
2023/07/14 09:23:54;;;;;;;5.15;2.83;;;21.00;99.90;;;;;;4881360;29;20531;-69
2023/07/14 09:26:26;;;;;;;6.22;2.67;;;21.00;99.90;;;;;;4881188;29;20084;-69
2023/07/14 09:28:52;;;;;;;6.47;2.63;;;20.90;99.90;;;;;;4898345;29;20053;-69
2023/07/14 09:31:37;;;;;;;7.03;2.97;;;20.80;99.90;;;;;;4881459;29;20060;-69
2023/07/14 09:34:23;;;;;;;5.65;2.90;;;20.90;99.90;;;;;;4898027;29;20049;-69
2023/07/14 09:36:50;;;;;;;5.68;2.63;;;20.90;99.90;;;;;;4896138;29;20085;-69
2023/07/14 09:39:26;;;;;;;7.75;2.92;;;21.00;99.90;;;;;;4897772;29;20092;-71
2023/07/14 09:41:56;;;;;;;7.10;2.90;;;21.00;99.90;;;;;;4897890;29;20056;-71
2023/07/14 09:44:23;;;;;;;6.72;3.40;;;20.90;99.90;;;;;;4897784;29;20049;-69
2023/07/14 09:46:50;;;;;;;6.18;2.97;;;21.00;99.90;;;;;;4897714;29;20139;-70
2023/07/14 09:49:23;;;;;;;9.70;2.97;;;21.00;99.90;;;;;;4897474;29;20770;-70
2023/07/14 09:52:08;;;;;;;5.97;2.83;;;21.30;99.90;;;;;;4897825;29;20088;-70
2023/07/14 09:54:40;;;;;;;4.50;2.38;;;21.40;99.90;;;;;;4880919;29;20588;-70
2023/07/14 09:57:11;;;;;;;5.03;2.30;;;21.40;99.90;;;;;;4880710;29;20055;-70
2023/07/14 09:59:56;;;;;;;5.63;2.33;;;21.60;99.90;;;;;;4897790;29;20052;-69
2023/07/14 10:02:32;;;;;;;4.68;2.20;;;21.70;99.90;;;;;;4897525;29;20059;-69
2023/07/14 10:05:34;;;;;;;3.97;2.47;;;21.90;99.90;;;;;;4897609;29;20494;-69
2023/07/14 10:08:02;;;;;;;4.75;2.60;;;22.00;99.90;;;;;;4898365;29;20053;-69
2023/07/14 10:10:30;;;;;;;5.80;2.45;;;22.00;99.90;;;;;;4880002;29;20060;-69
2023/07/14 10:12:56;;;;;;;3.80;2.40;;;22.00;99.90;;;;;;4880390;29;20065;-69
2023/07/14 10:15:31;;;;;;;3.75;2.30;;;22.10;99.90;;;;;;4897308;29;20059;-69
2023/07/14 10:18:15;;;;;;;8.77;2.80;;;22.00;99.90;;;;;;4864813;29;20056;-69
2023/07/14 10:20:42;;;;;;;5.28;2.92;;;22.00;99.90;;;;;;4878970;29;20098;-69
2023/07/14 10:23:16;;;;;;;7.93;2.92;;;22.00;99.90;;;;;;4897053;29;20060;-69
2023/07/14 10:25:50;;;;;;;5.43;2.42;;;22.20;99.90;;;;;;4879759;29;20056;-69
2023/07/14 10:28:23;;;;;;;4.07;2.40;;;22.10;99.90;;;;;;4897008;29;20052;-70
2023/07/14 10:30:49;;;;;;;7.57;3.13;;;22.20;99.90;;;;;;4879713;29;20067;-69
2023/07/14 10:33:23;;;;;;;5.28;2.70;;;22.20;99.90;;;;;;4879765;29;20060;-70
2023/07/14 10:35:56;;;;;;;5.13;2.55;;;22.00;99.90;;;;;;4895517;29;20525;-69
2023/07/14 10:38:32;;;;;;;3.47;2.30;;;22.00;99.90;;;;;;4889807;29;20048;-69
2023/07/14 10:41:01;;;;;;;4.97;2.75;;;21.90;99.90;;;;;;4898661;29;20048;-69
2023/07/14 10:43:48;;;;;;;9.23;2.72;;;21.90;99.90;;;;;;4915735;29;20180;-69
2023/07/14 10:46:19;;;;;;;6.22;2.33;;;21.80;99.90;;;;;;4915597;29;20040;-69
2023/07/14 10:49:22;;;;;;;3.45;2.10;;;21.80;99.90;;;;;;4915669;29;20056;-69
2023/07/14 10:52:05;;;;;;;6.00;2.30;;;21.80;99.90;;;;;;4870307;29;20052;-69
2023/07/14 10:54:59;;;;;;;9.48;3.13;;;21.70;99.90;;;;;;4915530;29;20056;-70
2023/07/14 10:57:47;;;;;;;7.25;2.80;;;21.60;99.90;;;;;;4879654;29;20115;-69
2023/07/14 11:00:20;;;;;;;6.63;2.60;;;21.60;99.90;;;;;;4898287;29;20059;-69
2023/07/14 11:03:12;;;;;;;5.15;3.10;;;21.50;99.90;;;;;;4915361;29;20539;-69
2023/07/14 11:05:38;;;;;;;4.80;3.30;;;21.50;99.90;;;;;;4915238;29;20050;-69
2023/07/14 11:08:08;;;;;;;6.82;3.35;;;21.50;99.90;;;;;;4883061;29;20056;-70
2023/07/14 11:10:52;;;;;;;5.85;2.72;;;21.60;99.90;;;;;;4879328;29;20049;-69
2023/07/14 11:13:50;;;;;;;6.32;2.78;;;21.90;99.90;;;;;;4879191;29;20056;-69
2023/07/14 11:16:29;;;;;;;4.60;2.40;;;22.00;99.90;;;;;;4881371;29;20061;-69
2023/07/14 11:19:06;;;;;;;3.80;2.40;;;22.10;99.90;;;;;;4896297;29;20056;-69
2023/07/14 11:22:11;;;;;;;5.93;2.60;;;22.20;99.90;;;;;;4879306;29;20060;-69
2023/07/14 11:25:05;;;;;;;4.82;2.28;;;22.30;99.90;;;;;;4871857;29;20064;-70
2023/07/14 11:27:35;;;;;;;4.00;2.20;;;22.50;99.90;;;;;;4896268;29;20080;-69
2023/07/14 11:30:17;;;;;;;3.00;2.05;;;22.40;99.90;;;;;;4895887;29;20131;-70
2023/07/14 11:33:11;;;;;;;4.30;2.17;;;22.50;99.90;;;;;;4895829;29;20052;-69
2023/07/14 11:35:54;;;;;;;4.30;2.47;;;22.60;99.90;;;;;;4879243;29;20424;-69
2023/07/14 11:38:34;;;;;;;4.13;1.98;;;22.60;99.90;;;;;;4879080;29;20135;-69
2023/07/14 11:41:01;;;;;;;4.18;2.25;;;22.70;99.90;;;;;;4879262;29;20056;-69
2023/07/14 11:43:29;;;;;;;5.82;2.20;;;22.70;99.90;;;;;;4895553;29;20048;-70
2023/07/14 11:46:02;;;;;;;3.75;2.38;;;22.80;99.90;;;;;;4878980;29;20060;-69
2023/07/14 11:48:45;;;;;;;5.28;2.55;;;22.90;99.90;;;;;;4879229;29;20095;-69
2023/07/14 11:51:16;;;;;;;6.45;2.70;;;22.90;99.90;;;;;;4895860;29;20052;-69
2023/07/14 11:54:14;;;;;;;10.23;2.33;;;22.80;99.90;;;;;;4877145;29;20135;-69
2023/07/14 11:56:40;;;;;;;3.88;2.25;;;23.00;99.90;;;;;;4895492;29;20461;-69
2023/07/14 11:59:12;;;;;;;4.07;2.25;;;23.00;99.90;;;;;;4895415;29;20055;-69
2023/07/14 12:01:47;;;;;;;4.65;2.25;;;22.90;99.90;;;;;;4878734;29;20516;-69
2023/07/14 12:04:28;;;;;;;4.80;2.17;;;22.90;99.90;;;;;;4895150;29;20450;-69
2023/07/14 12:07:16;;;;;;;10.07;2.53;;;23.00;99.90;;;;;;4895881;29;20061;-69
2023/07/14 12:10:00;;;;;;;7.43;2.40;;;22.80;99.90;;;;;;4895750;29;20049;-69
2023/07/14 12:12:27;;;;;;;4.93;1.98;;;22.90;99.90;;;;;;4895653;29;20148;-69
2023/07/14 12:14:53;;;;;;;4.47;2.13;;;22.70;99.90;;;;;;4895522;29;20408;-69
2023/07/14 12:17:40;;;;;;;4.65;2.20;;;22.80;99.90;;;;;;4878979;29;20057;-69
2023/07/14 12:20:12;;;;;;;4.63;2.17;;;23.00;99.90;;;;;;4878649;29;20061;-69
2023/07/14 12:22:39;;;;;;;4.50;2.10;;;23.00;99.90;;;;;;4895549;29;20116;-69
2023/07/14 12:25:16;;;;;;;4.80;2.25;;;23.10;99.90;;;;;;4895354;29;20060;-69
2023/07/14 12:27:54;;;;;;;3.45;1.95;;;23.10;99.90;;;;;;4895504;29;20128;-69
2023/07/14 12:30:28;;;;;;;5.47;2.38;;;23.10;99.90;;;;;;4878836;29;20065;-69
2023/07/14 12:33:00;;;;;;;4.22;2.38;;;23.10;99.90;;;;;;4895110;29;20100;-69
2023/07/14 12:35:26;;;;;;;;;;;23.00;99.90;;;;;;4899001;29;20059;-69
2023/07/14 12:37:53;;;;;;;5.07;2.35;;;23.20;99.90;;;;;;4897939;29;20380;-69
2023/07/14 12:40:22;;;;;;;4.75;2.05;;;23.10;99.90;;;;;;4898431;29;20067;-69
2023/07/14 12:42:50;;;;;;;5.53;2.00;;;23.20;99.90;;;;;;4898605;29;20057;-69
2023/07/14 12:45:18;;;;;;;4.20;2.10;;;22.90;99.90;;;;;;4880031;29;20097;-69
2023/07/14 12:47:46;;;;;;;2.85;1.70;;;22.90;99.90;;;;;;4879657;29;20377;-69
2023/07/14 12:50:19;;;;;;;6.53;2.13;;;22.90;99.90;;;;;;4897696;29;20056;-69
2023/07/14 12:52:46;;;;;;;3.75;2.10;;;22.80;99.90;;;;;;4881550;29;20048;-69
2023/07/14 12:55:15;;;;;;;5.50;2.28;;;22.80;99.90;;;;;;4898416;29;20048;-68
2023/07/14 12:57:42;;;;;;;5.50;2.38;;;22.90;99.90;;;;;;4898366;29;20053;-69
2023/07/14 13:00:34;;;;;;;4.95;2.25;;;22.80;99.90;;;;;;4898449;29;20127;-69
2023/07/14 13:03:02;;;;;;;5.25;2.05;;;22.90;99.90;;;;;;4898032;29;20068;-69